sensor_id;sensor_type;location;lat;lon;timestamp;pressure;altitude;pressure_sealevel;temperature;humidity
64908;BME280;64365;-1.756;110.040;2022-11-20T00:00:15;101359.63;;;1.84;77.40
64908;BME280;64365;-1.756;110.040;2022-11-20T00:02:42;101359.03;;;1.73;76.50
64908;BME280;64365;-1.756;110.040;2022-11-20T00:05:08;101356.53;;;1.68;81.86
64908;BME280;64365;-1.756;110.040;2022-11-20T00:07:35;101356.91;;;1.75;84.62
64908;BME280;64365;-1.756;110.040;2022-11-20T00:10:02;101357.22;;;1.74;78.45
64908;BME280;64365;-1.756;110.040;2022-11-20T00:12:30;101350.47;;;1.54;78.45
64908;BME280;64365;-1.756;110.040;2022-11-20T00:14:56;101364.94;;;1.65;85.37
64908;BME280;64365;-1.756;110.040;2022-11-20T00:17:23;101373.41;;;1.76;86.65
64908;BME280;64365;-1.756;110.040;2022-11-20T00:19:49;101366.25;;;1.81;83.54
64908;BME280;64365;-1.756;110.040;2022-11-20T00:22:16;101359.25;;;1.77;76.03
64908;BME280;64365;-1.756;110.040;2022-11-20T00:24:42;101348.75;;;1.63;73.90
64908;BME280;64365;-1.756;110.040;2022-11-20T00:27:09;101353.97;;;1.49;73.84
64908;BME280;64365;-1.756;110.040;2022-11-20T00:29:37;101350.81;;;1.33;73.67
64908;BME280;64365;-1.756;110.040;2022-11-20T00:32:03;101353.88;;;1.21;72.92
64908;BME280;64365;-1.756;110.040;2022-11-20T00:34:30;101362.09;;;1.14;73.62
64908;BME280;64365;-1.756;110.040;2022-11-20T00:36:57;101357.72;;;1.10;72.01
64908;BME280;64365;-1.756;110.040;2022-11-20T00:39:23;101353.59;;;1.04;73.34
64908;BME280;64365;-1.756;110.040;2022-11-20T00:41:50;101350.34;;;0.93;77.60
64908;BME280;64365;-1.756;110.040;2022-11-20T00:44:16;101352.63;;;0.99;80.50
64908;BME280;64365;-1.756;110.040;2022-11-20T00:46:44;101358.56;;;1.05;75.44
64908;BME280;64365;-1.756;110.040;2022-11-20T00:49:10;101353.38;;;1.00;74.29
64908;BME280;64365;-1.756;110.040;2022-11-20T00:51:37;101351.34;;;0.97;77.56
64908;BME280;64365;-1.756;110.040;2022-11-20T00:54:04;101343.28;;;0.93;75.79
64908;BME280;64365;-1.756;110.040;2022-11-20T00:56:30;101339.97;;;0.88;76.39
64908;BME280;64365;-1.756;110.040;2022-11-20T00:58:59;101345.06;;;0.98;86.51
64908;BME280;64365;-1.756;110.040;2022-11-20T01:01:26;101342.25;;;1.27;90.97
64908;BME280;64365;-1.756;110.040;2022-11-20T01:03:57;101339.75;;;1.36;81.44
64908;BME280;64365;-1.756;110.040;2022-11-20T01:06:26;101337.78;;;1.28;78.72
64908;BME280;64365;-1.756;110.040;2022-11-20T01:08:54;101343.69;;;1.20;74.55
64908;BME280;64365;-1.756;110.040;2022-11-20T01:11:23;101343.75;;;1.14;83.75
64908;BME280;64365;-1.756;110.040;2022-11-20T01:13:51;101342.75;;;1.29;87.49
64908;BME280;64365;-1.756;110.040;2022-11-20T01:16:19;101336.66;;;1.34;88.24
64908;BME280;64365;-1.756;110.040;2022-11-20T01:18:48;101338.88;;;1.41;82.91
64908;BME280;64365;-1.756;110.040;2022-11-20T01:21:18;101344.31;;;1.30;76.96
64908;BME280;64365;-1.756;110.040;2022-11-20T01:23:46;101329.03;;;1.18;83.52
64908;BME280;64365;-1.756;110.040;2022-11-20T01:26:14;101341.41;;;1.32;89.54
64908;BME280;64365;-1.756;110.040;2022-11-20T01:28:42;101335.91;;;1.47;91.38
64908;BME280;64365;-1.756;110.040;2022-11-20T01:31:13;101331.03;;;1.41;81.02
64908;BME280;64365;-1.756;110.040;2022-11-20T01:33:41;101331.22;;;1.30;77.76
64908;BME280;64365;-1.756;110.040;2022-11-20T01:36:08;101329.63;;;1.15;75.70
64908;BME280;64365;-1.756;110.040;2022-11-20T01:38:37;101331.47;;;0.96;73.87
64908;BME280;64365;-1.756;110.040;2022-11-20T01:41:04;101335.78;;;0.87;73.90
64908;BME280;64365;-1.756;110.040;2022-11-20T01:43:30;101321.50;;;0.79;73.08
64908;BME280;64365;-1.756;110.040;2022-11-20T01:46:11;101328.44;;;0.70;71.37
64908;BME280;64365;-1.756;110.040;2022-11-20T01:48:44;101320.25;;;0.57;73.43
64908;BME280;64365;-1.756;110.040;2022-11-20T01:51:17;101331.03;;;0.50;73.99
64908;BME280;64365;-1.756;110.040;2022-11-20T01:53:47;101315.97;;;0.42;73.85
64908;BME280;64365;-1.756;110.040;2022-11-20T01:56:15;101317.09;;;0.36;73.13
64908;BME280;64365;-1.756;110.040;2022-11-20T01:58:45;101316.63;;;0.34;70.82
64908;BME280;64365;-1.756;110.040;2022-11-20T02:01:14;101307.50;;;0.31;75.46
64908;BME280;64365;-1.756;110.040;2022-11-20T02:03:41;101315.84;;;0.53;87.15
64908;BME280;64365;-1.756;110.040;2022-11-20T02:06:13;101317.84;;;0.80;91.28
64908;BME280;64365;-1.756;110.040;2022-11-20T02:08:41;101313.94;;;0.96;88.46
64908;BME280;64365;-1.756;110.040;2022-11-20T02:11:09;101314.22;;;0.95;79.14
64908;BME280;64365;-1.756;110.040;2022-11-20T02:13:35;101318.03;;;0.83;76.14
64908;BME280;64365;-1.756;110.040;2022-11-20T02:16:22;101315.94;;;0.66;74.06
64908;BME280;64365;-1.756;110.040;2022-11-20T02:18:50;101309.19;;;0.60;74.36
64908;BME280;64365;-1.756;110.040;2022-11-20T02:21:33;101302.84;;;0.47;71.41
64908;BME280;64365;-1.756;110.040;2022-11-20T02:24:04;101296.13;;;0.41;73.12
64908;BME280;64365;-1.756;110.040;2022-11-20T02:26:35;101293.09;;;0.34;74.99
64908;BME280;64365;-1.756;110.040;2022-11-20T02:29:04;101300.41;;;0.32;73.97
64908;BME280;64365;-1.756;110.040;2022-11-20T02:31:36;101295.25;;;0.27;73.36
64908;BME280;64365;-1.756;110.040;2022-11-20T02:34:03;101298.94;;;0.26;79.53
64908;BME280;64365;-1.756;110.040;2022-11-20T02:36:32;101291.56;;;0.28;75.61
64908;BME280;64365;-1.756;110.040;2022-11-20T02:38:59;101290.53;;;0.29;73.75
64908;BME280;64365;-1.756;110.040;2022-11-20T02:41:32;101290.00;;;0.27;72.06
64908;BME280;64365;-1.756;110.040;2022-11-20T02:43:59;101297.38;;;0.25;73.54
64908;BME280;64365;-1.756;110.040;2022-11-20T02:46:25;101289.88;;;0.18;74.70
64908;BME280;64365;-1.756;110.040;2022-11-20T02:48:52;101288.09;;;0.13;75.16
64908;BME280;64365;-1.756;110.040;2022-11-20T02:51:18;101287.81;;;0.15;77.29
64908;BME280;64365;-1.756;110.040;2022-11-20T02:53:45;101292.25;;;0.14;73.99
64908;BME280;64365;-1.756;110.040;2022-11-20T02:56:12;101280.38;;;0.03;74.65
64908;BME280;64365;-1.756;110.040;2022-11-20T02:58:39;101289.28;;;0.02;79.05
64908;BME280;64365;-1.756;110.040;2022-11-20T03:01:06;101291.88;;;0.02;76.29
64908;BME280;64365;-1.756;110.040;2022-11-20T03:03:33;101291.03;;;0.07;83.03
64908;BME280;64365;-1.756;110.040;2022-11-20T03:05:59;101270.94;;;0.07;78.15
64908;BME280;64365;-1.756;110.040;2022-11-20T03:08:26;101270.94;;;0.07;74.60
64908;BME280;64365;-1.756;110.040;2022-11-20T03:10:53;101265.75;;;0.02;74.73
64908;BME280;64365;-1.756;110.040;2022-11-20T03:13:20;101269.66;;;0.05;83.73
64908;BME280;64365;-1.756;110.040;2022-11-20T03:15:48;101255.53;;;0.25;92.11
64908;BME280;64365;-1.756;110.040;2022-11-20T03:18:15;101256.75;;;0.52;93.13
64908;BME280;64365;-1.756;110.040;2022-11-20T03:20:42;101259.22;;;0.62;85.83
64908;BME280;64365;-1.756;110.040;2022-11-20T03:23:08;101256.47;;;0.53;79.57
64908;BME280;64365;-1.756;110.040;2022-11-20T03:25:35;101258.53;;;0.37;77.91
64908;BME280;64365;-1.756;110.040;2022-11-20T03:28:01;101262.25;;;0.31;78.50
64908;BME280;64365;-1.756;110.040;2022-11-20T03:30:28;101254.00;;;0.24;75.10
64908;BME280;64365;-1.756;110.040;2022-11-20T03:32:56;101259.34;;;0.13;74.35
64908;BME280;64365;-1.756;110.040;2022-11-20T03:35:22;101255.25;;;0.07;74.59
64908;BME280;64365;-1.756;110.040;2022-11-20T03:37:49;101256.06;;;0.03;74.44
64908;BME280;64365;-1.756;110.040;2022-11-20T03:40:16;101247.50;;;-0.03;76.96
64908;BME280;64365;-1.756;110.040;2022-11-20T03:42:42;101253.47;;;0.03;84.21
64908;BME280;64365;-1.756;110.040;2022-11-20T03:45:12;101252.28;;;0.14;88.43
64908;BME280;64365;-1.756;110.040;2022-11-20T03:47:39;101252.88;;;0.30;82.72
64908;BME280;64365;-1.756;110.040;2022-11-20T03:50:08;101243.81;;;0.22;76.58
64908;BME280;64365;-1.756;110.040;2022-11-20T03:52:35;101242.59;;;0.14;75.35
64908;BME280;64365;-1.756;110.040;2022-11-20T03:55:01;101242.47;;;0.06;74.58
64908;BME280;64365;-1.756;110.040;2022-11-20T03:57:28;101247.03;;;-0.05;77.94
64908;BME280;64365;-1.756;110.040;2022-11-20T03:59:54;101242.22;;;0.02;83.36
64908;BME280;64365;-1.756;110.040;2022-11-20T04:02:21;101238.06;;;0.01;79.19
64908;BME280;64365;-1.756;110.040;2022-11-20T04:04:48;101236.59;;;-0.05;75.86
64908;BME280;64365;-1.756;110.040;2022-11-20T04:07:15;101235.59;;;-0.09;74.17
64908;BME280;64365;-1.756;110.040;2022-11-20T04:09:42;101230.13;;;-0.13;73.86
64908;BME280;64365;-1.756;110.040;2022-11-20T04:12:09;101225.81;;;-0.23;77.68
64908;BME280;64365;-1.756;110.040;2022-11-20T04:14:35;101222.91;;;-0.21;79.58
64908;BME280;64365;-1.756;110.040;2022-11-20T04:17:03;101215.91;;;-0.26;77.28
64908;BME280;64365;-1.756;110.040;2022-11-20T04:19:29;101215.13;;;-0.26;76.45
64908;BME280;64365;-1.756;110.040;2022-11-20T04:21:56;101206.81;;;-0.28;77.52
64908;BME280;64365;-1.756;110.040;2022-11-20T04:24:24;101218.78;;;-0.27;74.60
64908;BME280;64365;-1.756;110.040;2022-11-20T04:26:50;101210.25;;;-0.33;74.10
64908;BME280;64365;-1.756;110.040;2022-11-20T04:29:17;101201.41;;;-0.37;73.72
64908;BME280;64365;-1.756;110.040;2022-11-20T04:31:43;101203.47;;;-0.34;74.04
64908;BME280;64365;-1.756;110.040;2022-11-20T04:34:11;101214.47;;;-0.37;73.61
64908;BME280;64365;-1.756;110.040;2022-11-20T04:36:37;101209.03;;;-0.41;73.01
64908;BME280;64365;-1.756;110.040;2022-11-20T04:39:05;101212.19;;;-0.44;74.67
64908;BME280;64365;-1.756;110.040;2022-11-20T04:41:35;101210.38;;;-0.43;81.23
64908;BME280;64365;-1.756;110.040;2022-11-20T04:44:04;101207.00;;;-0.25;87.56
64908;BME280;64365;-1.756;110.040;2022-11-20T04:46:32;101220.44;;;-0.12;82.08
64908;BME280;64365;-1.756;110.040;2022-11-20T04:48:59;101209.00;;;-0.17;83.01
64908;BME280;64365;-1.756;110.040;2022-11-20T04:51:25;101217.84;;;0.07;91.52
64908;BME280;64365;-1.756;110.040;2022-11-20T04:53:52;101210.13;;;0.21;86.72
64908;BME280;64365;-1.756;110.040;2022-11-20T04:56:19;101207.84;;;0.14;79.03
64908;BME280;64365;-1.756;110.040;2022-11-20T04:58:47;101208.78;;;0.04;76.08
64908;BME280;64365;-1.756;110.040;2022-11-20T05:01:15;101198.16;;;-0.05;74.37
64908;BME280;64365;-1.756;110.040;2022-11-20T05:03:43;101205.56;;;-0.12;73.80
64908;BME280;64365;-1.756;110.040;2022-11-20T05:06:15;101205.44;;;-0.26;77.91
64908;BME280;64365;-1.756;110.040;2022-11-20T05:08:41;101204.34;;;-0.20;81.46
64908;BME280;64365;-1.756;110.040;2022-11-20T05:11:10;101192.34;;;-0.21;75.87
64908;BME280;64365;-1.756;110.040;2022-11-20T05:13:37;101186.13;;;-0.25;74.32
64908;BME280;64365;-1.756;110.040;2022-11-20T05:16:07;101178.91;;;-0.33;77.58
64908;BME280;64365;-1.756;110.040;2022-11-20T05:18:35;101180.91;;;-0.25;84.98
64908;BME280;64365;-1.756;110.040;2022-11-20T05:21:02;101171.72;;;-0.22;79.60
64908;BME280;64365;-1.756;110.040;2022-11-20T05:23:30;101167.63;;;-0.28;75.71
64908;BME280;64365;-1.756;110.040;2022-11-20T05:25:57;101176.81;;;-0.31;74.23
64908;BME280;64365;-1.756;110.040;2022-11-20T05:28:25;101166.47;;;-0.41;73.55
64908;BME280;64365;-1.756;110.040;2022-11-20T05:30:52;101166.84;;;-0.53;75.15
64908;BME280;64365;-1.756;110.040;2022-11-20T05:33:21;101168.59;;;-0.43;85.75
64908;BME280;64365;-1.756;110.040;2022-11-20T05:35:47;101169.75;;;-0.30;83.98
64908;BME280;64365;-1.756;110.040;2022-11-20T05:38:14;101163.81;;;-0.36;78.02
64908;BME280;64365;-1.756;110.040;2022-11-20T05:40:41;101163.66;;;-0.26;87.80
64908;BME280;64365;-1.756;110.040;2022-11-20T05:43:07;101161.44;;;-0.13;85.55
64908;BME280;64365;-1.756;110.040;2022-11-20T05:45:34;101170.91;;;-0.18;83.75
64908;BME280;64365;-1.756;110.040;2022-11-20T05:48:01;101164.19;;;-0.05;87.87
64908;BME280;64365;-1.756;110.040;2022-11-20T05:50:28;101177.97;;;0.01;89.49
64908;BME280;64365;-1.756;110.040;2022-11-20T05:52:58;101173.72;;;0.05;83.77
64908;BME280;64365;-1.756;110.040;2022-11-20T05:55:24;101168.41;;;-0.09;77.69
64908;BME280;64365;-1.756;110.040;2022-11-20T05:57:52;101180.78;;;-0.14;74.95
64908;BME280;64365;-1.756;110.040;2022-11-20T06:00:19;101191.06;;;-0.23;74.43
64908;BME280;64365;-1.756;110.040;2022-11-20T06:02:45;101202.41;;;-0.33;75.05
64908;BME280;64365;-1.756;110.040;2022-11-20T06:05:12;101196.25;;;-0.42;73.55
64908;BME280;64365;-1.756;110.040;2022-11-20T06:07:40;101199.69;;;-0.47;73.03
64908;BME280;64365;-1.756;110.040;2022-11-20T06:10:07;101200.75;;;-0.48;79.55
64908;BME280;64365;-1.756;110.040;2022-11-20T06:12:33;101193.69;;;-0.47;76.25
64908;BME280;64365;-1.756;110.040;2022-11-20T06:15:00;101193.47;;;-0.51;74.49
64908;BME280;64365;-1.756;110.040;2022-11-20T06:17:27;101185.13;;;-0.53;74.59
64908;BME280;64365;-1.756;110.040;2022-11-20T06:19:53;101191.69;;;-0.56;73.57
64908;BME280;64365;-1.756;110.040;2022-11-20T06:22:20;101184.69;;;-0.60;73.42
64908;BME280;64365;-1.756;110.040;2022-11-20T06:24:47;101186.03;;;-0.63;72.46
64908;BME280;64365;-1.756;110.040;2022-11-20T06:27:15;101192.88;;;-0.67;73.03
64908;BME280;64365;-1.756;110.040;2022-11-20T06:29:42;101178.25;;;-0.68;72.96
64908;BME280;64365;-1.756;110.040;2022-11-20T06:32:08;101180.91;;;-0.73;73.11
64908;BME280;64365;-1.756;110.040;2022-11-20T06:34:35;101192.91;;;-0.72;77.06
64908;BME280;64365;-1.756;110.040;2022-11-20T06:37:02;101194.75;;;-0.48;83.90
64908;BME280;64365;-1.756;110.040;2022-11-20T06:39:28;101188.91;;;-0.40;78.95
64908;BME280;64365;-1.756;110.040;2022-11-20T06:41:56;101192.09;;;-0.43;78.24
64908;BME280;64365;-1.756;110.040;2022-11-20T06:44:22;101195.63;;;-0.34;81.76
64908;BME280;64365;-1.756;110.040;2022-11-20T06:46:49;101186.59;;;-0.42;75.97
64908;BME280;64365;-1.756;110.040;2022-11-20T06:49:15;101187.88;;;-0.39;80.54
64908;BME280;64365;-1.756;110.040;2022-11-20T06:51:42;101180.25;;;-0.36;76.41
64908;BME280;64365;-1.756;110.040;2022-11-20T06:54:08;101175.41;;;-0.47;74.76
64908;BME280;64365;-1.756;110.040;2022-11-20T06:56:35;101177.03;;;-0.52;72.99
64908;BME280;64365;-1.756;110.040;2022-11-20T06:59:05;101161.81;;;-0.69;72.00
64908;BME280;64365;-1.756;110.040;2022-11-20T07:01:32;101165.72;;;-0.66;71.80
64908;BME280;64365;-1.756;110.040;2022-11-20T07:03:58;101172.69;;;-0.61;80.24
64908;BME280;64365;-1.756;110.040;2022-11-20T07:06:25;101172.97;;;-0.39;85.84
64908;BME280;64365;-1.756;110.040;2022-11-20T07:08:51;101168.34;;;-0.23;83.56
64908;BME280;64365;-1.756;110.040;2022-11-20T07:11:18;101162.84;;;-0.21;76.55
64908;BME280;64365;-1.756;110.040;2022-11-20T07:13:45;101175.66;;;-0.25;75.90
64908;BME280;64365;-1.756;110.040;2022-11-20T07:16:13;101172.34;;;-0.30;74.95
64908;BME280;64365;-1.756;110.040;2022-11-20T07:18:39;101164.78;;;-0.32;73.83
64908;BME280;64365;-1.756;110.040;2022-11-20T07:21:07;101163.84;;;-0.41;73.33
64908;BME280;64365;-1.756;110.040;2022-11-20T07:23:34;101146.25;;;-0.55;72.39
64908;BME280;64365;-1.756;110.040;2022-11-20T07:26:02;101157.69;;;-0.51;71.62
64908;BME280;64365;-1.756;110.040;2022-11-20T07:28:29;101149.09;;;-0.51;78.62
64908;BME280;64365;-1.756;110.040;2022-11-20T07:30:56;101150.81;;;-0.22;84.67
64908;BME280;64365;-1.756;110.040;2022-11-20T07:33:24;101157.69;;;0.12;88.20
64908;BME280;64365;-1.756;110.040;2022-11-20T07:35:50;101142.84;;;0.26;83.86
64908;BME280;64365;-1.756;110.040;2022-11-20T07:38:17;101149.41;;;0.43;84.80
64908;BME280;64365;-1.756;110.040;2022-11-20T07:40:44;101151.72;;;0.44;76.72
64908;BME280;64365;-1.756;110.040;2022-11-20T07:43:10;101161.28;;;0.35;75.74
64908;BME280;64365;-1.756;110.040;2022-11-20T07:45:37;101161.91;;;0.27;75.38
64908;BME280;64365;-1.756;110.040;2022-11-20T07:48:04;101173.53;;;0.21;74.90
64908;BME280;64365;-1.756;110.040;2022-11-20T07:50:32;101170.34;;;0.05;77.46
64908;BME280;64365;-1.756;110.040;2022-11-20T07:53:03;101164.25;;;0.09;74.73
64908;BME280;64365;-1.756;110.040;2022-11-20T07:55:29;101155.44;;;0.05;73.56
64908;BME280;64365;-1.756;110.040;2022-11-20T07:57:56;101153.38;;;0.02;73.29
64908;BME280;64365;-1.756;110.040;2022-11-20T08:00:24;101141.94;;;-0.02;73.21
64908;BME280;64365;-1.756;110.040;2022-11-20T08:02:51;101149.91;;;0.07;74.67
64908;BME280;64365;-1.756;110.040;2022-11-20T08:05:18;101148.22;;;0.16;73.17
64908;BME280;64365;-1.756;110.040;2022-11-20T08:07:46;101154.25;;;0.16;72.69
64908;BME280;64365;-1.756;110.040;2022-11-20T08:10:14;101125.75;;;-0.04;72.11
64908;BME280;64365;-1.756;110.040;2022-11-20T08:12:46;101143.28;;;0.14;72.72
64908;BME280;64365;-1.756;110.040;2022-11-20T08:15:31;101142.50;;;0.14;74.18
64908;BME280;64365;-1.756;110.040;2022-11-20T08:18:02;101136.34;;;0.24;75.35
64908;BME280;64365;-1.756;110.040;2022-11-20T08:20:30;101125.03;;;0.28;75.11
64908;BME280;64365;-1.756;110.040;2022-11-20T08:23:02;101127.94;;;0.27;73.31
64908;BME280;64365;-1.756;110.040;2022-11-20T08:25:32;101128.44;;;0.29;74.10
64908;BME280;64365;-1.756;110.040;2022-11-20T08:27:59;101132.81;;;0.33;73.87
64908;BME280;64365;-1.756;110.040;2022-11-20T08:30:26;101127.38;;;0.30;73.42
64908;BME280;64365;-1.756;110.040;2022-11-20T08:32:54;101131.25;;;0.32;73.42
64908;BME280;64365;-1.756;110.040;2022-11-20T08:35:20;101138.66;;;0.44;74.70
64908;BME280;64365;-1.756;110.040;2022-11-20T08:37:47;101124.31;;;0.42;73.13
64908;BME280;64365;-1.756;110.040;2022-11-20T08:40:15;101136.03;;;0.44;73.51
64908;BME280;64365;-1.756;110.040;2022-11-20T08:42:46;101144.66;;;0.45;73.28
64908;BME280;64365;-1.756;110.040;2022-11-20T08:45:13;101145.84;;;0.53;73.28
64908;BME280;64365;-1.756;110.040;2022-11-20T08:47:40;101137.63;;;0.59;73.00
64908;BME280;64365;-1.756;110.040;2022-11-20T08:50:08;101132.59;;;0.63;72.73
64908;BME280;64365;-1.756;110.040;2022-11-20T08:52:35;101125.91;;;0.57;73.46
64908;BME280;64365;-1.756;110.040;2022-11-20T08:55:01;101134.09;;;0.69;75.53
64908;BME280;64365;-1.756;110.040;2022-11-20T08:57:31;101138.66;;;0.91;81.73
64908;BME280;64365;-1.756;110.040;2022-11-20T08:59:57;101138.78;;;1.14;76.95
64908;BME280;64365;-1.756;110.040;2022-11-20T09:02:24;101139.47;;;1.20;78.64
64908;BME280;64365;-1.756;110.040;2022-11-20T09:04:51;101130.63;;;1.29;75.84
64908;BME280;64365;-1.756;110.040;2022-11-20T09:07:18;101131.69;;;1.28;75.42
64908;BME280;64365;-1.756;110.040;2022-11-20T09:09:45;101132.38;;;1.48;76.89
64908;BME280;64365;-1.756;110.040;2022-11-20T09:12:12;101139.16;;;1.63;74.78
64908;BME280;64365;-1.756;110.040;2022-11-20T09:14:40;101136.03;;;1.61;74.53
64908;BME280;64365;-1.756;110.040;2022-11-20T09:17:06;101123.03;;;1.70;74.06
64908;BME280;64365;-1.756;110.040;2022-11-20T09:19:33;101116.59;;;1.76;73.50
64908;BME280;64365;-1.756;110.040;2022-11-20T09:22:00;101105.34;;;1.75;73.10
64908;BME280;64365;-1.756;110.040;2022-11-20T09:24:27;101110.28;;;1.77;73.42
64908;BME280;64365;-1.756;110.040;2022-11-20T09:26:54;101100.47;;;1.82;73.42
64908;BME280;64365;-1.756;110.040;2022-11-20T09:29:22;101101.91;;;1.89;73.91
64908;BME280;64365;-1.756;110.040;2022-11-20T09:31:50;101088.34;;;2.09;75.45
64908;BME280;64365;-1.756;110.040;2022-11-20T09:34:17;101084.28;;;2.26;75.12
64908;BME280;64365;-1.756;110.040;2022-11-20T09:36:43;101083.75;;;2.38;73.34
64908;BME280;64365;-1.756;110.040;2022-11-20T09:39:10;101077.47;;;2.47;73.84
64908;BME280;64365;-1.756;110.040;2022-11-20T09:41:53;101080.28;;;2.60;72.89
64908;BME280;64365;-1.756;110.040;2022-11-20T09:44:32;101076.00;;;2.64;73.39
64908;BME280;64365;-1.756;110.040;2022-11-20T09:47:08;101067.41;;;2.72;71.84
64908;BME280;64365;-1.756;110.040;2022-11-20T09:49:55;101061.06;;;2.73;77.49
64908;BME280;64365;-1.756;110.040;2022-11-20T09:52:32;101069.81;;;3.00;77.50
64908;BME280;64365;-1.756;110.040;2022-11-20T09:55:08;101071.41;;;3.18;76.21
64908;BME280;64365;-1.756;110.040;2022-11-20T09:57:36;101062.63;;;3.32;73.96
64908;BME280;64365;-1.756;110.040;2022-11-20T10:00:06;101055.66;;;3.36;71.38
64908;BME280;64365;-1.756;110.040;2022-11-20T10:02:40;101051.03;;;3.33;71.72
64908;BME280;64365;-1.756;110.040;2022-11-20T10:05:11;101052.41;;;3.39;73.80
64908;BME280;64365;-1.756;110.040;2022-11-20T10:07:42;101041.16;;;3.56;71.07
64908;BME280;64365;-1.756;110.040;2022-11-20T10:10:15;101056.47;;;3.63;69.35
64908;BME280;64365;-1.756;110.040;2022-11-20T10:12:56;101038.06;;;3.63;68.43
64908;BME280;64365;-1.756;110.040;2022-11-20T10:15:33;101043.63;;;3.70;72.19
64908;BME280;64365;-1.756;110.040;2022-11-20T10:18:11;101029.38;;;3.80;74.37
64908;BME280;64365;-1.756;110.040;2022-11-20T10:20:47;101036.34;;;3.93;74.28
64908;BME280;64365;-1.756;110.040;2022-11-20T10:23:30;101027.34;;;4.03;70.42
64908;BME280;64365;-1.756;110.040;2022-11-20T10:26:02;101032.44;;;4.08;71.49
64908;BME280;64365;-1.756;110.040;2022-11-20T10:28:40;101024.81;;;4.15;72.72
64908;BME280;64365;-1.756;110.040;2022-11-20T10:31:23;101017.56;;;4.21;69.69
64908;BME280;64365;-1.756;110.040;2022-11-20T10:33:56;101005.50;;;4.11;69.78
64908;BME280;64365;-1.756;110.040;2022-11-20T10:36:28;100994.53;;;4.09;68.63
64908;BME280;64365;-1.756;110.040;2022-11-20T10:39:00;100976.44;;;4.08;69.48
64908;BME280;64365;-1.756;110.040;2022-11-20T10:41:33;100986.03;;;4.03;70.31
64908;BME280;64365;-1.756;110.040;2022-11-20T10:44:03;100976.44;;;4.08;72.42
64908;BME280;64365;-1.756;110.040;2022-11-20T10:46:37;100985.69;;;4.14;70.04
64908;BME280;64365;-1.756;110.040;2022-11-20T10:49:12;100979.84;;;4.08;70.27
64908;BME280;64365;-1.756;110.040;2022-11-20T10:51:47;100978.59;;;4.14;72.18
64908;BME280;64365;-1.756;110.040;2022-11-20T10:54:21;100968.16;;;4.27;70.56
64908;BME280;64365;-1.756;110.040;2022-11-20T10:56:51;100960.78;;;4.11;69.16
64908;BME280;64365;-1.756;110.040;2022-11-20T10:59:41;100964.69;;;3.96;70.15
64908;BME280;64365;-1.756;110.040;2022-11-20T11:02:17;100962.25;;;3.91;70.29
64908;BME280;64365;-1.756;110.040;2022-11-20T11:04:47;100944.13;;;3.90;70.75
64908;BME280;64365;-1.756;110.040;2022-11-20T11:07:17;100939.53;;;3.86;70.44
64908;BME280;64365;-1.756;110.040;2022-11-20T11:09:48;100942.63;;;3.88;70.71
64908;BME280;64365;-1.756;110.040;2022-11-20T11:12:16;100937.53;;;3.83;71.58
64908;BME280;64365;-1.756;110.040;2022-11-20T11:14:45;100934.16;;;3.74;70.47
64908;BME280;64365;-1.756;110.040;2022-11-20T11:17:23;100922.06;;;3.73;71.95
64908;BME280;64365;-1.756;110.040;2022-11-20T11:20:14;100929.19;;;3.73;70.92
64908;BME280;64365;-1.756;110.040;2022-11-20T11:22:43;100920.09;;;3.70;71.96
64908;BME280;64365;-1.756;110.040;2022-11-20T11:25:20;100921.00;;;3.74;72.56
64908;BME280;64365;-1.756;110.040;2022-11-20T11:27:48;100914.50;;;3.80;72.30
64908;BME280;64365;-1.756;110.040;2022-11-20T11:30:18;100902.00;;;3.60;72.06
64908;BME280;64365;-1.756;110.040;2022-11-20T11:32:45;100900.63;;;3.53;73.07
64908;BME280;64365;-1.756;110.040;2022-11-20T11:35:22;100890.41;;;3.61;74.35
64908;BME280;64365;-1.756;110.040;2022-11-20T11:37:49;100891.19;;;3.61;73.26
64908;BME280;64365;-1.756;110.040;2022-11-20T11:40:17;100885.78;;;3.58;73.61
64908;BME280;64365;-1.756;110.040;2022-11-20T11:42:54;100878.66;;;3.67;73.89
64908;BME280;64365;-1.756;110.040;2022-11-20T11:45:23;100884.03;;;3.70;74.37
64908;BME280;64365;-1.756;110.040;2022-11-20T11:47:51;100869.97;;;3.66;74.98
64908;BME280;64365;-1.756;110.040;2022-11-20T11:50:21;100861.19;;;3.71;74.54
64908;BME280;64365;-1.756;110.040;2022-11-20T11:53:01;100866.28;;;3.76;76.71
64908;BME280;64365;-1.756;110.040;2022-11-20T11:55:35;100859.41;;;3.84;78.41
64908;BME280;64365;-1.756;110.040;2022-11-20T11:58:19;100857.78;;;4.00;77.94
64908;BME280;64365;-1.756;110.040;2022-11-20T12:00:56;100848.81;;;4.01;77.02
64908;BME280;64365;-1.756;110.040;2022-11-20T12:03:27;100851.34;;;3.98;76.52
64908;BME280;64365;-1.756;110.040;2022-11-20T12:05:59;100841.75;;;3.93;77.82
64908;BME280;64365;-1.756;110.040;2022-11-20T12:08:31;100844.97;;;3.99;76.71
64908;BME280;64365;-1.756;110.040;2022-11-20T12:11:04;100839.03;;;3.72;77.78
64908;BME280;64365;-1.756;110.040;2022-11-20T12:13:42;100826.22;;;3.70;79.70
64908;BME280;64365;-1.756;110.040;2022-11-20T12:16:13;100829.91;;;3.78;78.78
64908;BME280;64365;-1.756;110.040;2022-11-20T12:18:40;100830.06;;;3.82;79.14
64908;BME280;64365;-1.756;110.040;2022-11-20T12:21:19;100829.59;;;3.80;78.30
64908;BME280;64365;-1.756;110.040;2022-11-20T12:24:02;100824.66;;;3.78;79.37
64908;BME280;64365;-1.756;110.040;2022-11-20T12:26:44;100826.16;;;3.88;79.39
64908;BME280;64365;-1.756;110.040;2022-11-20T12:29:21;100808.84;;;3.87;78.58
64908;BME280;64365;-1.756;110.040;2022-11-20T12:32:05;100806.16;;;3.96;81.33
64908;BME280;64365;-1.756;110.040;2022-11-20T12:34:44;100803.63;;;4.08;80.56
64908;BME280;64365;-1.756;110.040;2022-11-20T12:37:26;100786.00;;;4.09;82.66
64908;BME280;64365;-1.756;110.040;2022-11-20T12:39:59;100794.72;;;4.21;80.44
64908;BME280;64365;-1.756;110.040;2022-11-20T12:42:38;100792.81;;;4.31;80.71
64908;BME280;64365;-1.756;110.040;2022-11-20T12:48:38;100765.84;;;4.34;80.73
64908;BME280;64365;-1.756;110.040;2022-11-20T12:51:27;100765.47;;;4.44;80.46